Time;durP1;ratioP1;P1;durP2;ratioP2;P2;SDS_P1;SDS_P2;PMS_P1;PMS_P2;Temp;Humidity;BMP_temperature;BMP_pressure;BME280_temperature;BME280_humidity;BME280_pressure;Samples;Min_cycle;Max_cycle;Signal;HPM_P1;HPM_P2
2021/01/06 00:00:00;;;;;;;15.33;10.67;;;;;;;4.43;100.00;100306.91;5117821;28;20342;-40
2021/01/06 00:02:46;;;;;;;16.03;10.70;;;;;;;4.54;100.00;100305.41;5117461;28;20223;-40
2021/01/06 00:05:33;;;;;;;18.30;11.03;;;;;;;4.50;100.00;100311.31;5117843;28;20663;-37
2021/01/06 00:08:19;;;;;;;14.13;10.50;;;;;;;4.19;100.00;100316.78;5117575;28;20278;-41
2021/01/06 00:11:05;;;;;;;13.43;10.53;;;;;;;4.34;100.00;100314.47;5117143;28;20231;-37
2021/01/06 00:13:52;;;;;;;15.77;10.97;;;;;;;4.28;100.00;100307.53;5118036;28;20192;-37
2021/01/06 00:16:39;;;;;;;17.83;10.00;;;;;;;4.23;100.00;100310.84;5117294;28;20518;-41
2021/01/06 00:19:25;;;;;;;14.03;9.50;;;;;;;4.39;100.00;100308.59;5117522;28;20195;-40
2021/01/06 00:22:11;;;;;;;16.63;10.93;;;;;;;4.27;100.00;100312.63;5117877;28;20630;-40
2021/01/06 00:24:56;;;;;;;14.93;10.60;;;;;;;4.20;100.00;100305.69;5117632;28;20223;-40
2021/01/06 00:27:46;;;;;;;16.33;10.43;;;;;;;4.37;100.00;100306.84;5117612;28;20232;-39
2021/01/06 00:30:36;;;;;;;15.70;10.83;;;;;;;4.39;100.00;100313.72;5117462;28;20204;-40
2021/01/06 00:33:24;;;;;;;19.33;10.97;;;;;;;4.38;100.00;100309.44;5117528;28;20266;-40
2021/01/06 00:36:21;;;;;;;17.33;11.27;;;;;;;4.18;100.00;100318.47;5117226;28;20317;-39
2021/01/06 00:39:07;;;;;;;15.30;10.97;;;;;;;4.19;100.00;100312.50;5117406;28;20474;-36
2021/01/06 00:41:52;;;;;;;16.80;11.60;;;;;;;4.17;100.00;100308.19;5117608;28;20201;-38
2021/01/06 00:44:39;;;;;;;19.30;12.23;;;;;;;4.33;100.00;100310.19;5119735;28;20195;-42
2021/01/06 00:47:26;;;;;;;19.37;11.53;;;;;;;4.24;100.00;100310.00;5121519;28;20200;-41
2021/01/06 00:50:18;;;;;;;19.37;12.13;;;;;;;4.31;100.00;100312.72;5121417;28;20539;-40
2021/01/06 00:53:06;;;;;;;18.63;12.87;;;;;;;4.31;100.00;100314.41;5121311;28;20279;-40
2021/01/06 00:55:53;;;;;;;18.43;11.93;;;;;;;4.31;100.00;100314.41;5121329;28;20269;-39
2021/01/06 00:58:39;;;;;;;19.77;11.97;;;;;;;4.26;100.00;100309.19;5121315;28;20197;-41
2021/01/06 01:01:26;;;;;;;19.33;11.70;;;;;;;4.05;100.00;100311.38;5121340;28;20200;-41
2021/01/06 01:04:13;;;;;;;22.13;12.83;;;;;;;4.28;100.00;100306.66;5121200;28;20345;-41
2021/01/06 01:06:59;;;;;;;18.40;12.93;;;;;;;4.21;100.00;100308.25;5121444;28;20246;-38
2021/01/06 01:09:45;;;;;;;26.53;14.27;;;;;;;4.17;100.00;100315.88;5121254;28;20485;-41
2021/01/06 01:12:31;;;;;;;19.07;13.33;;;;;;;4.20;100.00;100306.53;5121092;28;20203;-40
2021/01/06 01:15:17;;;;;;;19.73;11.17;;;;;;;4.14;100.00;100306.44;5121140;28;20204;-39
2021/01/06 01:18:06;;;;;;;20.27;12.47;;;;;;;4.41;100.00;100303.47;5120897;28;20203;-40
2021/01/06 01:20:56;;;;;;;21.80;12.67;;;;;;;4.35;100.00;100301.69;5120472;28;20205;-41
2021/01/06 01:23:43;;;;;;;19.13;13.10;;;;;;;4.26;100.00;100304.09;5121099;28;20243;-39
2021/01/06 01:26:29;;;;;;;18.60;12.60;;;;;;;4.31;100.00;100315.28;5120809;28;20204;-38
2021/01/06 01:29:15;;;;;;;22.77;13.33;;;;;;;4.17;100.00;100306.50;5120583;28;20220;-41
2021/01/06 01:32:01;;;;;;;20.87;13.27;;;;;;;4.24;100.00;100303.19;5120467;28;20196;-40
2021/01/06 01:34:46;;;;;;;19.67;13.43;;;;;;;4.19;100.00;100298.84;5120697;28;20256;-40
2021/01/06 01:37:33;;;;;;;18.93;12.23;;;;;;;4.21;100.00;100304.81;5120507;28;20205;-41
2021/01/06 01:40:23;;;;;;;24.40;14.33;;;;;;;4.19;100.00;100306.53;5120523;28;20539;-40
2021/01/06 01:43:17;;;;;;;23.57;14.07;;;;;;;4.26;100.00;100305.78;5120360;28;20220;-39
2021/01/06 01:46:37;;;;;;;23.23;13.53;;;;;;;4.14;100.00;100307.31;5120042;28;20220;-38
2021/01/06 01:49:29;;;;;;;19.67;12.33;;;;;;;4.18;100.00;100310.78;5120297;28;20295;-42
2021/01/06 01:52:26;;;;;;;25.50;13.80;;;;;;;4.41;100.00;100296.66;5120428;28;20208;-41
2021/01/06 01:55:17;;;;;;;19.30;12.17;;;;;;;4.12;100.00;100303.00;5119473;28;20215;-36
2021/01/06 01:58:08;;;;;;;22.73;13.50;;;;;;;4.03;100.00;100293.44;5120329;28;20334;-36
2021/01/06 02:00:56;;;;;;;19.43;11.90;;;;;;;3.96;100.00;100295.88;5119927;28;20195;-40
2021/01/06 02:03:48;;;;;;;19.67;12.27;;;;;;;4.23;100.00;100295.47;5120073;28;20599;-39
2021/01/06 02:06:39;;;;;;;19.87;13.30;;;;;;;4.03;100.00;100295.13;5120088;28;20196;-39
2021/01/06 02:09:33;;;;;;;20.03;11.93;;;;;;;3.93;100.00;100299.25;5119553;28;20203;-41
2021/01/06 02:12:28;;;;;;;23.27;13.10;;;;;;;4.08;100.00;100293.53;5119937;28;20199;-39
2021/01/06 02:15:26;;;;;;;20.37;14.23;;;;;;;4.03;100.00;100297.69;5119543;28;20257;-41
2021/01/06 02:18:14;;;;;;;22.23;13.93;;;;;;;3.92;100.00;100297.50;5119811;28;20197;-39
2021/01/06 02:21:06;;;;;;;23.30;12.70;;;;;;;3.95;100.00;100295.00;5119436;28;20640;-41
2021/01/06 02:23:55;;;;;;;23.50;13.30;;;;;;;3.96;100.00;100295.88;5119780;28;20204;-40
2021/01/06 02:26:41;;;;;;;21.37;13.90;;;;;;;3.94;100.00;100298.41;5119633;28;20219;-40
2021/01/06 02:29:28;;;;;;;18.80;12.83;;;;;;;3.89;100.00;100291.47;5119352;28;20198;-39
2021/01/06 02:32:15;;;;;;;19.43;13.10;;;;;;;3.86;100.00;100287.16;5119773;28;20549;-41
2021/01/06 02:35:01;;;;;;;20.37;13.63;;;;;;;3.97;100.00;100292.47;5119160;28;20203;-41
2021/01/06 02:37:50;;;;;;;18.47;13.10;;;;;;;3.92;100.00;100288.97;5118913;28;20206;-39
2021/01/06 02:40:36;;;;;;;19.90;12.67;;;;;;;3.86;100.00;100279.47;5118685;28;20347;-38
2021/01/06 02:43:25;;;;;;;17.67;13.43;;;;;;;3.90;100.00;100290.63;5118748;28;20477;-36
2021/01/06 02:46:12;;;;;;;18.37;12.83;;;;;;;3.98;100.00;100294.22;5119198;28;20340;-38
2021/01/06 02:48:59;;;;;;;17.07;12.13;;;;;;;3.87;100.00;100295.69;5119178;28;20304;-36
2021/01/06 02:51:50;;;;;;;17.73;12.17;;;;;;;4.14;100.00;100296.19;5118622;28;20593;-39
2021/01/06 02:54:40;;;;;;;15.60;10.67;;;;;;;3.76;100.00;100295.50;5118817;28;20342;-42
2021/01/06 02:57:27;;;;;;;15.93;11.17;;;;;;;3.94;100.00;100305.22;5118341;28;20235;-42
2021/01/06 03:00:16;;;;;;;19.73;11.97;;;;;;;3.90;100.00;100301.72;5118689;28;20206;-41
2021/01/06 03:03:07;;;;;;;14.77;11.53;;;;;;;3.93;100.00;100303.50;5118687;28;20201;-43
2021/01/06 03:06:06;;;;;;;13.93;11.63;;;;;;;3.96;100.00;100301.84;5118444;28;20607;-40
2021/01/06 03:08:52;;;;;;;14.00;11.07;;;;;;;3.91;100.00;100294.91;5119257;28;20203;-40
2021/01/06 03:11:39;;;;;;;15.03;11.17;;;;;;;4.15;100.00;100297.94;5117605;28;20231;-40
2021/01/06 03:14:27;;;;;;;15.23;10.73;;;;;;;4.24;100.00;100285.28;5118643;28;20226;-40
2021/01/06 03:17:16;;;;;;;14.20;10.30;;;;;;;4.12;100.00;100297.88;5118663;28;20607;-40
2021/01/06 03:20:08;;;;;;;13.57;10.53;;;;;;;4.04;100.00;100284.94;5118412;28;20194;-41
2021/01/06 03:23:00;;;;;;;16.63;11.53;;;;;;;4.05;100.00;100285.78;5118618;28;20195;-42
2021/01/06 03:25:45;;;;;;;17.80;13.40;;;;;;;3.74;100.00;100281.81;5118325;28;20260;-41
2021/01/06 03:28:34;;;;;;;21.03;14.73;;;;;;;3.68;100.00;100279.13;5118694;28;20240;-40
2021/01/06 03:31:35;;;;;;;20.70;13.73;;;;;;;3.66;100.00;100283.34;5118440;28;20323;-39
2021/01/06 03:34:24;;;;;;;20.93;14.97;;;;;;;3.66;100.00;100278.25;5117980;28;20645;-39
2021/01/06 03:37:15;;;;;;;20.80;15.03;;;;;;;3.58;100.00;100287.47;5118124;28;20245;-38
2021/01/06 03:40:08;;;;;;;20.90;14.53;;;;;;;3.59;100.00;100284.09;5118331;28;20256;-39
2021/01/06 03:42:55;;;;;;;23.40;16.60;;;;;;;3.47;100.00;100288.09;5118050;28;20252;-39
2021/01/06 03:45:45;;;;;;;25.00;15.33;;;;;;;3.79;100.00;100282.78;5118298;28;20190;-38
2021/01/06 03:48:40;;;;;;;22.77;16.63;;;;;;;3.72;100.00;100283.47;5117648;28;20264;-41
2021/01/06 03:51:34;;;;;;;25.23;16.97;;;;;;;3.72;100.00;100286.03;5117168;28;20283;-38
2021/01/06 03:54:30;;;;;;;24.07;17.13;;;;;;;3.80;100.00;100282.78;5118512;28;20294;-41
2021/01/06 03:57:16;;;;;;;25.27;18.23;;;;;;;3.75;100.00;100281.00;5117985;28;20675;-40
2021/01/06 04:00:07;;;;;;;25.60;17.60;;;;;;;3.59;100.00;100281.53;5118097;28;20217;-40
2021/01/06 04:02:59;;;;;;;26.53;18.57;;;;;;;3.70;100.00;100272.34;5118073;28;20305;-37
2021/01/06 04:05:46;;;;;;;23.30;16.73;;;;;;;3.51;100.00;100271.13;5117898;28;20245;-39
2021/01/06 04:08:44;;;;;;;24.93;17.17;;;;;;;3.58;100.00;100270.44;5118178;28;20194;-39
2021/01/06 04:11:35;;;;;;;29.53;18.47;;;;;;;3.71;100.00;100266.41;5117995;28;20324;-40
2021/01/06 04:14:21;;;;;;;30.47;18.20;;;;;;;3.81;100.00;100271.72;5117933;28;20254;-37
2021/01/06 04:17:18;;;;;;;27.93;17.10;;;;;;;3.88;100.00;100270.13;5117661;28;20673;-40
2021/01/06 04:20:17;;;;;;;24.77;17.27;;;;;;;3.75;100.00;100271.63;5117445;28;20194;-41
2021/01/06 04:23:06;;;;;;;28.10;17.87;;;;;;;3.66;100.00;100271.44;5117698;28;20280;-42
2021/01/06 04:25:52;;;;;;;28.47;18.83;;;;;;;3.68;100.00;100262.09;5118164;28;20260;-42
2021/01/06 04:28:38;;;;;;;26.67;16.07;;;;;;;3.66;100.00;100255.22;5117353;28;20198;-40
2021/01/06 04:31:24;;;;;;;29.13;17.80;;;;;;;3.59;100.00;100261.94;5117396;28;20237;-37
2021/01/06 04:34:10;;;;;;;29.17;18.27;;;;;;;3.68;100.00;100261.22;5117789;28;20238;-40
2021/01/06 04:36:57;;;;;;;30.97;18.17;;;;;;;3.64;100.00;100259.44;5117416;28;20221;-38
2021/01/06 04:39:43;;;;;;;26.23;17.27;;;;;;;3.80;100.00;100256.31;5117896;28;20265;-41
2021/01/06 04:42:32;;;;;;;28.50;18.33;;;;;;;3.55;100.00;100251.63;5117796;28;20349;-38
2021/01/06 04:45:22;;;;;;;34.67;19.30;;;;;;;3.79;100.00;100247.81;5117404;28;20299;-38
2021/01/06 04:48:41;;;;;;;27.07;17.67;;;;;;;3.99;100.00;100243.06;5117491;28;20204;-41
2021/01/06 04:51:47;;;;;;;29.03;19.13;;;;;;;4.03;100.00;100238.81;5117012;28;20250;-37
2021/01/06 04:55:13;;;;;;;26.40;17.73;;;;;;;3.97;100.00;100237.06;5117457;28;20195;-38
2021/01/06 04:58:16;;;;;;;26.63;16.70;;;;;;;3.83;100.00;100242.72;5053705;28;20499;-40
2021/01/06 05:01:27;;;;;;;27.23;16.60;;;;;;;3.88;100.00;100239.44;5116602;28;20206;-39
2021/01/06 05:04:48;;;;;;;28.83;17.57;;;;;;;3.60;100.00;100235.50;5116176;28;20198;-40
2021/01/06 05:07:54;;;;;;;24.87;17.03;;;;;;;3.73;100.00;100242.59;5117406;28;20252;-36
2021/01/06 05:10:46;;;;;;;26.07;16.27;;;;;;;3.85;100.00;100236.81;5117025;28;20300;-37
2021/01/06 05:13:39;;;;;;;24.73;17.20;;;;;;;3.57;100.00;100239.72;5117282;28;20464;-40
2021/01/06 05:16:33;;;;;;;26.20;17.73;;;;;;;3.66;100.00;100242.44;5117222;28;20226;-37
2021/01/06 05:19:23;;;;;;;29.57;16.27;;;;;;;3.51;100.00;100235.34;5117090;28;20370;-40
2021/01/06 05:22:11;;;;;;;26.53;17.30;;;;;;;3.46;100.00;100247.16;5116471;28;20198;-40
2021/01/06 05:25:02;;;;;;;28.90;18.33;;;;;;;3.47;100.00;100241.22;5117031;28;20357;-40
2021/01/06 05:27:50;;;;;;;29.33;18.30;;;;;;;3.52;100.00;100238.75;5117011;28;20487;-42
2021/01/06 05:30:38;;;;;;;25.87;16.40;;;;;;;3.29;100.00;100244.28;5117858;28;20207;-39
2021/01/06 05:33:29;;;;;;;26.57;16.80;;;;;;;3.39;100.00;100237.69;5121197;28;20198;-36
2021/01/06 05:36:21;;;;;;;26.60;16.10;;;;;;;3.30;100.00;100235.78;5120680;28;20219;-41
2021/01/06 05:39:19;;;;;;;24.13;15.43;;;;;;;3.40;100.00;100234.25;5120628;28;20210;-37
2021/01/06 05:42:11;;;;;;;46.93;18.10;;;;;;;3.45;100.00;100237.78;5120269;28;20587;-37
2021/01/06 05:44:58;;;;;;;24.77;15.70;;;;;;;3.53;100.00;100237.94;5120361;28;20198;-41
2021/01/06 05:47:49;;;;;;;22.60;15.10;;;;;;;3.28;100.00;100223.81;5120667;28;20195;-40
2021/01/06 05:50:37;;;;;;;23.83;16.07;;;;;;;3.50;100.00;100231.06;5120048;28;20283;-39
2021/01/06 05:53:38;;;;;;;23.70;15.33;;;;;;;3.31;100.00;100223.88;5120358;28;20261;-41
2021/01/06 05:56:46;;;;;;;26.30;15.43;;;;;;;3.49;100.00;100225.91;5119884;28;20283;-37
2021/01/06 05:59:54;;;;;;;23.23;15.93;;;;;;;3.78;100.00;100219.66;5120329;28;20482;-42
2021/01/06 06:02:52;;;;;;;25.47;16.43;;;;;;;3.70;100.00;100216.94;5120306;28;20200;-39
2021/01/06 06:05:44;;;;;;;25.93;17.53;;;;;;;3.55;100.00;100229.47;5119695;28;20287;-38
2021/01/06 06:08:45;;;;;;;22.40;13.90;;;;;;;3.46;100.00;100219.03;5119816;28;20273;-40
2021/01/06 06:12:04;;;;;;;26.40;15.87;;;;;;;3.31;100.00;100218.75;5120046;28;20283;-39
2021/01/06 06:15:07;;;;;;;25.27;16.37;;;;;;;3.34;100.00;100226.50;5119753;28;20206;-40
2021/01/06 06:18:20;;;;;;;24.40;16.23;;;;;;;3.36;100.00;100223.13;5119702;28;20305;-39
2021/01/06 06:21:24;;;;;;;24.80;15.27;;;;;;;3.62;100.00;100226.16;5119956;28;20260;-38
2021/01/06 06:24:43;;;;;;;26.30;15.83;;;;;;;3.51;100.00;100222.56;5119729;28;20202;-40
2021/01/06 06:27:46;;;;;;;23.60;15.27;;;;;;;3.41;100.00;100224.06;5119644;28;20199;-40
2021/01/06 06:30:37;;;;;;;22.43;16.10;;;;;;;3.33;100.00;100217.97;5119794;28;20325;-37
2021/01/06 06:33:29;;;;;;;23.57;15.30;;;;;;;3.51;100.00;100220.00;5119577;28;20290;-38
2021/01/06 06:36:23;;;;;;;23.83;16.43;;;;;;;3.35;100.00;100225.66;5119266;28;20267;-38
2021/01/06 06:39:15;;;;;;;24.00;15.70;;;;;;;3.64;100.00;100228.75;5119596;28;20607;-40
2021/01/06 06:42:11;;;;;;;25.30;16.70;;;;;;;3.52;100.00;100226.84;5119089;28;20200;-41
2021/01/06 06:44:59;;;;;;;28.10;16.60;;;;;;;3.36;100.00;100222.28;5119575;28;20253;-35
2021/01/06 06:48:02;;;;;;;25.00;17.27;;;;;;;3.50;100.00;100231.06;5119352;28;20312;-37
2021/01/06 06:50:59;;;;;;;25.37;16.10;;;;;;;3.55;100.00;100224.34;5118876;28;20662;-37
2021/01/06 06:53:55;;;;;;;24.97;15.97;;;;;;;3.57;100.00;100225.25;5118710;28;20345;-39
2021/01/06 06:56:53;;;;;;;24.57;16.47;;;;;;;3.25;100.00;100224.59;5118722;28;20223;-40
2021/01/06 06:59:52;;;;;;;22.80;15.97;;;;;;;3.30;100.00;100217.03;5118839;28;20591;-39
2021/01/06 07:02:44;;;;;;;23.30;15.27;;;;;;;3.11;100.00;100226.88;5118870;28;20289;-38
2021/01/06 07:05:36;;;;;;;24.53;16.53;;;;;;;3.44;100.00;100228.38;5118833;28;20238;-39
2021/01/06 07:08:28;;;;;;;27.57;17.00;;;;;;;3.32;100.00;100223.03;5118678;28;20194;-38
2021/01/06 07:11:25;;;;;;;23.67;15.50;;;;;;;3.27;100.00;100215.28;5118824;28;20640;-41
2021/01/06 07:14:21;;;;;;;24.30;15.97;;;;;;;3.16;100.00;100216.75;5118588;28;20202;-39
2021/01/06 07:17:12;;;;;;;25.77;16.30;;;;;;;3.35;100.00;100223.09;5118589;28;20241;-41
2021/01/06 07:20:02;;;;;;;26.50;16.03;;;;;;;3.18;100.00;100225.31;5118364;28;20206;-42
2021/01/06 07:22:57;;;;;;;20.53;14.93;;;;;;;3.21;100.00;100232.16;5118529;28;20200;-41
2021/01/06 07:25:47;;;;;;;22.67;16.33;;;;;;;3.04;100.00;100225.03;5118127;28;20197;-39
2021/01/06 07:28:33;;;;;;;23.07;16.07;;;;;;;3.23;100.00;100227.94;5118678;28;20189;-42
2021/01/06 07:31:23;;;;;;;21.73;16.77;;;;;;;3.20;100.00;100236.41;5106062;28;20198;-41
2021/01/06 07:34:18;;;;;;;20.73;15.27;;;;;;;3.14;100.00;100232.91;5118034;28;20238;-39
2021/01/06 07:37:07;;;;;;;22.37;15.60;;;;;;;3.24;100.00;100230.53;5117615;28;20642;-41
2021/01/06 07:40:00;;;;;;;22.37;14.13;;;;;;;3.56;100.00;100236.31;5118062;28;20283;-36
2021/01/06 07:42:49;;;;;;;25.03;16.97;;;;;;;3.41;100.00;100233.44;5117460;28;20283;-35
2021/01/06 07:45:40;;;;;;;24.40;15.00;;;;;;;2.99;100.00;100231.75;5117754;28;20272;-37
2021/01/06 07:48:50;;;;;;;22.47;15.60;;;;;;;3.21;100.00;100234.72;5117051;28;20198;-41
2021/01/06 07:51:50;;;;;;;24.03;15.90;;;;;;;3.14;100.00;100236.31;5117428;28;20551;-38
2021/01/06 07:54:41;;;;;;;20.50;15.43;;;;;;;3.20;100.00;100235.59;5116567;28;20206;-41
2021/01/06 07:57:39;;;;;;;20.00;14.63;;;;;;;3.10;100.00;100239.63;5117903;28;20311;-41
2021/01/06 08:01:41;;;;;;;19.50;13.47;;;;;;;3.16;100.00;100238.91;5117958;28;20198;-37
2021/01/06 08:04:32;;;;;;;21.60;14.67;;;;;;;3.14;100.00;100240.56;5117702;28;20505;-39
2021/01/06 08:07:21;;;;;;;19.63;14.53;;;;;;;3.06;100.00;100236.13;5117590;28;20208;-39
2021/01/06 08:10:16;;;;;;;18.97;14.57;;;;;;;3.25;100.00;100241.63;5117432;28;20235;-38
2021/01/06 08:13:14;;;;;;;22.67;14.30;;;;;;;3.15;100.00;100248.25;5117627;28;20193;-37
2021/01/06 08:16:16;;;;;;;21.23;14.17;;;;;;;3.28;100.00;100237.44;5117684;28;20503;-41
2021/01/06 08:19:14;;;;;;;20.20;14.50;;;;;;;3.12;100.00;100245.63;5117246;28;20481;-36
2021/01/06 08:22:18;;;;;;;20.33;14.13;;;;;;;3.34;100.00;100240.13;5117712;28;20198;-41
2021/01/06 08:25:19;;;;;;;23.00;14.03;;;;;;;3.72;100.00;100245.97;5116700;28;20259;-39
2021/01/06 08:28:15;;;;;;;20.83;14.43;;;;;;;3.73;100.00;100249.41;5105617;28;20611;-40
2021/01/06 08:31:09;;;;;;;21.93;15.27;;;;;;;3.41;100.00;100248.75;5097183;28;20257;-40
2021/01/06 08:33:58;;;;;;;21.93;14.73;;;;;;;3.28;100.00;100252.78;5096873;28;20199;-39
2021/01/06 08:36:45;;;;;;;21.87;14.83;;;;;;;3.35;100.00;100254.63;5096821;28;20235;-39
2021/01/06 08:39:35;;;;;;;23.13;14.80;;;;;;;3.20;100.00;100259.41;5096226;28;20203;-37
2021/01/06 08:42:25;;;;;;;21.00;14.80;;;;;;;3.33;100.00;100256.31;5096383;28;20191;-39
2021/01/06 08:45:21;;;;;;;21.80;14.47;;;;;;;3.41;100.00;100243.66;5096621;28;20303;-40
2021/01/06 08:48:30;;;;;;;23.93;15.33;;;;;;;3.34;100.00;100246.94;5096256;28;20203;-37
2021/01/06 08:51:31;;;;;;;23.17;14.97;;;;;;;3.43;100.00;100250.53;5096267;28;20261;-40
2021/01/06 08:54:31;;;;;;;18.53;13.03;;;;;;;3.67;100.00;100242.47;5096739;28;20636;-38
2021/01/06 08:57:24;;;;;;;19.33;14.23;;;;;;;3.70;100.00;100245.09;5096468;28;20234;-42
2021/01/06 09:00:22;;;;;;;19.40;14.13;;;;;;;3.77;100.00;100248.63;5096153;28;20585;-39
2021/01/06 09:03:20;;;;;;;20.53;14.70;;;;;;;3.80;100.00;100248.66;5096178;28;20203;-38
2021/01/06 09:06:15;;;;;;;20.47;13.60;;;;;;;3.71;100.00;100248.50;5099223;28;20245;-45
2021/01/06 09:09:26;;;;;;;19.30;13.77;;;;;;;3.76;100.00;100252.88;5100432;28;20257;-39
2021/01/06 09:12:30;;;;;;;17.87;12.30;;;;;;;3.30;100.00;100240.91;5099855;28;20608;-36
2021/01/06 09:15:27;;;;;;;17.53;12.63;;;;;;;3.50;100.00;100253.22;5099412;28;20286;-39
2021/01/06 09:18:19;;;;;;;15.27;11.57;;;;;;;3.35;100.00;100249.53;5100023;28;20237;-38
2021/01/06 09:21:14;;;;;;;16.07;11.50;;;;;;;3.15;100.00;100250.81;5100292;28;20203;-37
2021/01/06 09:24:41;;;;;;;14.77;10.57;;;;;;;3.32;100.00;100248.59;5099833;28;20647;-42
2021/01/06 09:27:59;;;;;;;17.17;12.40;;;;;;;3.50;100.00;100243.84;5099924;28;20203;-38
2021/01/06 09:30:49;;;;;;;17.67;11.83;;;;;;;3.36;100.00;100243.59;5100064;28;20585;-39
2021/01/06 09:33:40;;;;;;;17.40;11.07;;;;;;;3.79;100.00;100249.53;5100001;28;20253;-38
2021/01/06 09:36:28;;;;;;;16.80;12.67;;;;;;;3.66;100.00;100247.53;5099745;28;20195;-39
2021/01/06 09:39:17;;;;;;;15.40;11.60;;;;;;;3.77;100.00;100246.94;5100053;28;20198;-41
2021/01/06 09:42:05;;;;;;;17.77;12.33;;;;;;;3.37;100.00;100250.41;5099733;28;20666;-41
2021/01/06 09:44:53;;;;;;;19.73;12.57;;;;;;;3.49;100.00;100247.22;5099465;28;20492;-39
2021/01/06 09:47:42;;;;;;;20.73;12.57;;;;;;;3.57;100.00;100249.94;5099985;28;20200;-39
2021/01/06 09:50:33;;;;;;;19.87;13.43;;;;;;;3.59;100.00;100249.16;5100145;28;20333;-38
2021/01/06 09:53:24;;;;;;;19.13;13.83;;;;;;;3.63;100.00;100250.91;5099355;28;20600;-42
2021/01/06 09:56:15;;;;;;;20.80;14.10;;;;;;;3.46;100.00;100245.47;5099541;28;20553;-40
2021/01/06 09:59:02;;;;;;;17.80;13.00;;;;;;;3.40;100.00;100245.34;5099426;28;20253;-40
2021/01/06 10:01:57;;;;;;;18.00;14.07;;;;;;;3.52;100.00;100244.75;5099592;28;20501;-40
2021/01/06 10:04:45;;;;;;;17.87;13.67;;;;;;;3.78;100.00;100248.66;5114931;28;20383;-35
2021/01/06 10:07:43;;;;;;;21.27;13.87;;;;;;;4.21;100.00;100241.69;5120472;28;20341;-39
2021/01/06 10:10:33;;;;;;;21.87;14.67;;;;;;;4.06;100.00;100244.88;5119620;28;20226;-39
2021/01/06 10:13:33;;;;;;;22.37;15.10;;;;;;;3.87;100.00;100240.28;5119276;28;20241;-37
2021/01/06 10:16:26;;;;;;;21.37;15.23;;;;;;;3.61;100.00;100241.47;5118757;28;20198;-40
2021/01/06 10:19:37;;;;;;;21.17;15.50;;;;;;;3.67;100.00;100251.84;5119351;28;20344;-41
2021/01/06 10:22:50;;;;;;;21.63;14.20;;;;;;;3.89;100.00;100242.84;5120183;28;20202;-42
2021/01/06 10:25:54;;;;;;;24.07;15.80;;;;;;;4.10;100.00;100243.22;5119772;28;20206;-37
2021/01/06 10:28:53;;;;;;;22.43;15.10;;;;;;;3.81;100.00;100241.00;5120197;28;20253;-42
2021/01/06 10:32:06;;;;;;;22.87;15.77;;;;;;;3.79;100.00;100235.03;5119510;28;20291;-36
2021/01/06 10:35:27;;;;;;;20.07;14.73;;;;;;;3.91;100.00;100233.50;5119511;28;20296;-42
2021/01/06 10:38:26;;;;;;;20.43;14.57;;;;;;;4.20;100.00;100234.84;5119084;28;20666;-39
2021/01/06 10:41:24;;;;;;;19.63;14.07;;;;;;;4.03;100.00;100226.03;5119244;28;20234;-35
2021/01/06 10:44:28;;;;;;;19.93;13.83;;;;;;;3.97;100.00;100223.38;5118718;28;20282;-36
2021/01/06 10:47:44;;;;;;;19.17;14.03;;;;;;;3.89;100.00;100214.72;5118525;28;20223;-39
2021/01/06 10:50:45;;;;;;;19.40;14.53;;;;;;;3.89;100.00;100223.25;5118556;28;20239;-44
2021/01/06 10:53:37;;;;;;;19.90;15.17;;;;;;;3.88;100.00;100221.53;5118142;28;20702;-37
2021/01/06 10:56:33;;;;;;;21.83;14.13;;;;;;;4.18;100.00;100220.34;5118902;28;20202;-39
2021/01/06 10:59:49;;;;;;;17.80;13.30;;;;;;;4.25;100.00;100217.88;5118645;28;20256;-41
2021/01/06 11:02:43;;;;;;;17.23;12.90;;;;;;;3.97;100.00;100218.28;5118594;28;20658;-38
2021/01/06 11:05:44;;;;;;;17.23;12.57;;;;;;;3.91;100.00;100207.94;5118858;28;20204;-42
2021/01/06 11:09:31;;;;;;;17.57;13.83;;;;;;;3.93;100.00;100211.38;5118842;28;20253;-40
2021/01/06 11:12:46;;;;;;;18.03;13.40;;;;;;;3.92;100.00;100212.22;5098274;28;20200;-40
2021/01/06 11:15:54;;;;;;;15.43;12.30;;;;;;;4.14;100.00;100210.03;5077609;28;20220;-37
2021/01/06 11:18:46;;;;;;;17.33;11.30;;;;;;;4.43;100.00;100201.94;5097720;28;20627;-39
2021/01/06 11:21:39;;;;;;;15.57;11.70;;;;;;;4.17;100.00;100205.81;5109354;28;20208;-37
2021/01/06 11:24:49;;;;;;;20.97;13.00;;;;;;;3.90;100.00;100201.94;5118475;28;20259;-37
2021/01/06 11:28:08;;;;;;;17.27;12.77;;;;;;;4.06;100.00;100201.34;5117880;28;20447;-40
2021/01/06 11:31:37;;;;;;;16.07;12.83;;;;;;;4.10;100.00;100195.47;5118134;28;20208;-41
2021/01/06 11:34:34;;;;;;;19.37;14.73;;;;;;;4.09;100.00;100198.84;5118239;28;20207;-40
2021/01/06 11:37:33;;;;;;;20.27;14.50;;;;;;;4.36;100.00;100189.91;5117998;28;20228;-40
2021/01/06 11:40:49;;;;;;;18.97;14.13;;;;;;;4.00;100.00;100185.03;5117974;28;20195;-38
2021/01/06 11:43:59;;;;;;;19.73;14.30;;;;;;;4.30;100.00;100175.28;5117948;28;20594;-36
2021/01/06 11:47:06;;;;;;;18.70;14.70;;;;;;;3.89;100.00;100176.34;5117532;28;20260;-37
2021/01/06 11:50:04;;;;;;;20.00;14.70;;;;;;;4.25;100.00;100166.66;5117170;28;20659;-38
2021/01/06 11:53:42;;;;;;;19.70;15.20;;;;;;;3.85;100.00;100169.44;5118039;28;20241;-39
2021/01/06 11:56:48;;;;;;;25.23;16.10;;;;;;;3.82;100.00;100165.13;5096981;28;20231;-38
2021/01/06 12:00:06;;;;;;;21.93;15.83;;;;;;;3.89;100.00;100166.09;5113093;28;20484;-40
2021/01/06 12:04:01;;;;;;;21.00;15.37;;;;;;;4.06;100.00;100162.09;5116082;28;20214;-39
2021/01/06 12:07:04;;;;;;;19.93;15.33;;;;;;;4.14;100.00;100160.53;5101448;28;20204;-37
2021/01/06 12:10:06;;;;;;;19.30;15.03;;;;;;;4.02;100.00;100153.50;5114725;28;20206;-42
2021/01/06 12:13:14;;;;;;;20.97;14.20;;;;;;;4.31;100.00;100151.41;5097195;28;20418;-41
2021/01/06 12:16:17;;;;;;;21.40;15.20;;;;;;;3.83;100.00;100155.75;5097022;28;20203;-36
2021/01/06 12:19:18;;;;;;;24.60;15.43;;;;;;;4.09;100.00;100149.38;5096980;28;20261;-36
2021/01/06 12:22:13;;;;;;;22.93;15.53;;;;;;;3.98;100.00;100145.78;5097245;28;20271;-35
2021/01/06 12:25:04;;;;;;;19.57;14.00;;;;;;;3.82;100.00;100142.09;5097206;28;20345;-36
2021/01/06 12:27:59;;;;;;;17.87;13.43;;;;;;;3.91;100.00;100141.41;5097372;28;20478;-38
2021/01/06 12:31:03;;;;;;;20.30;14.70;;;;;;;3.39;100.00;100135.41;5096701;28;20253;-41
2021/01/06 12:34:05;;;;;;;18.87;14.03;;;;;;;3.78;100.00;100135.25;5096704;28;20204;-36
2021/01/06 12:37:22;;;;;;;22.53;14.43;;;;;;;3.68;100.00;100130.78;5096773;28;20211;-39
2021/01/06 12:40:19;;;;;;;17.77;13.93;;;;;;;3.86;100.00;100127.66;5097873;28;20617;-38
2021/01/06 12:43:19;;;;;;;16.87;13.80;;;;;;;3.85;100.00;100125.94;5100682;28;20212;-39
2021/01/06 12:46:12;;;;;;;19.37;13.87;;;;;;;3.58;100.00;100124.69;5100052;28;20195;-39
2021/01/06 12:49:24;;;;;;;19.13;14.13;;;;;;;3.87;100.00;100114.03;5100965;28;20205;-41
2021/01/06 12:52:24;;;;;;;17.70;13.07;;;;;;;3.78;100.00;100113.06;5100349;28;20655;-35
2021/01/06 12:55:19;;;;;;;17.60;13.07;;;;;;;4.05;100.00;100107.50;5100240;28;20208;-38
2021/01/06 12:58:12;;;;;;;16.10;11.63;;;;;;;4.43;100.00;100109.75;5103068;28;20234;-40
2021/01/06 13:01:03;;;;;;;19.30;13.07;;;;;;;4.11;100.00;100105.03;5120842;28;20294;-36
2021/01/06 13:04:04;;;;;;;17.40;11.63;;;;;;;3.75;100.00;100105.34;5120913;28;20261;-39
2021/01/06 13:06:56;;;;;;;17.90;12.67;;;;;;;4.00;100.00;100108.25;5120808;28;20191;-38
2021/01/06 13:09:56;;;;;;;18.60;13.17;;;;;;;4.03;100.00;100103.19;5108092;28;20220;-39
2021/01/06 13:12:50;;;;;;;16.40;12.20;;;;;;;3.64;100.00;100101.75;5060452;28;20248;-37
2021/01/06 13:19:18;;;;;;;13.63;11.30;;;;;;;3.90;100.00;100101.31;5060075;28;20235;-40
2021/01/06 13:22:31;;;;;;;15.47;11.77;;;;;;;4.01;100.00;100098.06;5060069;28;20264;-37